Time;durP1;ratioP1;P1;durP2;ratioP2;P2;SDS_P1;SDS_P2;PMS_P1;PMS_P2;Temp;Humidity;BMP_temperature;BMP_pressure;BME280_temperature;BME280_humidity;BME280_pressure;Samples;Min_cycle;Max_cycle;Signal;HPM_P1;HPM_P2
2021/12/11 04:51:58;;;;;;;14.61;11.15;;;;;;;;;;364150;145;882301;-60
2021/12/11 04:52:55;;;;;;;13.80;10.24;;;;;;;;;;356263;148;857292;-59
2021/12/11 04:54:16;;;;;;;15.57;11.86;;;;;;;;;;358558;147;864998;-59
2021/12/11 04:55:28;;;;;;;17.68;11.63;;;;;;;;;;357395;148;859098;-62
2021/12/11 04:56:39;;;;;;;17.70;12.64;;;;;;;;;;359363;148;858590;-60
2021/12/11 08:24:40;;;;;;;16.79;10.32;;;;;;;6.10;88.51;99610.33;398956;133;879874;-59
2021/12/11 08:25:43;;;;;;;11.99;8.65;;;;;;;6.07;88.42;99600.03;386333;136;858629;-59
2021/12/11 08:26:45;;;;;;;16.43;9.07;;;;;;;6.16;88.16;99612.08;373657;142;856550;-58
2021/12/11 08:27:47;;;;;;;13.55;8.57;;;;;;;6.25;87.86;99605.25;373790;141;856801;-59
2021/12/11 08:28:50;;;;;;;15.66;8.05;;;;;;;6.37;87.25;99590.75;376631;141;858002;-59
2021/12/11 08:29:52;;;;;;;12.19;7.38;;;;;;;6.52;86.71;99605.36;366889;143;856592;-59
2021/12/11 08:30:56;;;;;;;13.63;7.53;;;;;;;6.66;86.20;99607.98;367020;142;857251;-60
2021/12/11 08:31:58;;;;;;;12.04;7.97;;;;;;;6.83;85.45;99613.15;373004;143;856133;-60
2021/12/11 08:32:59;;;;;;;12.23;7.54;;;;;;;6.95;84.36;99607.17;372631;144;856613;-59
2021/12/11 08:34:03;;;;;;;9.40;6.51;;;;;;;7.10;83.79;99607.19;373651;144;857203;-55
2021/12/11 08:35:06;;;;;;;12.57;7.91;;;;;;;7.26;83.34;99607.20;373628;141;857301;-56
2021/12/11 08:36:08;;;;;;;9.08;5.93;;;;;;;7.44;83.09;99598.62;372751;142;866410;-56
2021/12/11 08:37:11;;;;;;;9.59;5.55;;;;;;;7.60;82.04;99607.20;371017;144;864992;-55
2021/12/11 08:38:13;;;;;;;12.87;6.16;;;;;;;7.67;80.81;99596.02;373202;143;857623;-54
2021/12/11 08:39:16;;;;;;;8.49;6.01;;;;;;;7.84;80.83;99606.28;372640;142;857356;-56
2021/12/11 08:40:21;;;;;;;12.06;6.01;;;;;;;7.98;80.54;99598.52;372461;141;857677;-62
2021/12/11 08:41:24;;;;;;;11.12;6.55;;;;;;;8.06;79.96;99600.22;369915;144;857327;-61
2021/12/11 08:42:26;;;;;;;11.10;6.33;;;;;;;8.11;79.00;99599.36;371493;141;858985;-59
2021/12/11 08:43:28;;;;;;;11.30;7.63;;;;;;;8.31;79.65;99590.69;364843;144;861534;-59
2021/12/11 08:44:35;;;;;;;12.35;6.51;;;;;;;8.29;77.53;99590.67;361688;147;858912;-61
2021/12/11 08:45:45;;;;;;;9.81;6.97;;;;;;;8.33;77.41;99591.53;366096;144;859760;-55
2021/12/11 08:46:50;;;;;;;11.62;6.96;;;;;;;8.45;77.67;99596.63;371454;142;856611;-54
2021/12/11 08:47:56;;;;;;;9.01;6.59;;;;;;;8.57;76.87;99593.18;366885;144;856694;-59
2021/12/11 08:48:59;;;;;;;9.63;6.62;;;;;;;8.50;75.85;99594.08;371517;142;862089;-59
2021/12/11 08:50:02;;;;;;;10.21;7.22;;;;;;;8.53;76.22;99603.51;372650;141;859030;-59
2021/12/11 08:51:08;;;;;;;10.87;7.08;;;;;;;8.58;76.38;99601.76;374109;143;857362;-58
2021/12/11 08:52:16;;;;;;;9.58;6.53;;;;;;;8.63;76.66;99602.59;372488;141;857238;-59
2021/12/11 08:53:18;;;;;;;10.49;6.56;;;;;;;8.67;75.83;99603.45;372754;142;857233;-58
2021/12/11 08:54:20;;;;;;;7.83;5.48;;;;;;;8.68;76.15;99606.00;370140;143;857292;-59
2021/12/11 08:55:25;;;;;;;11.23;5.65;;;;;;;8.75;75.70;99607.68;370469;141;865823;-58
2021/12/11 08:56:28;;;;;;;9.46;6.54;;;;;;;8.81;76.03;99598.19;373870;141;857338;-57
2021/12/11 08:57:31;;;;;;;10.13;7.29;;;;;;;8.80;75.04;99601.63;371694;144;857471;-58
2021/12/11 08:58:33;;;;;;;9.53;6.79;;;;;;;8.75;74.82;99601.67;367725;146;857318;-60
2021/12/11 09:05:24;;;;;;;9.84;6.57;;;;;;;9.10;75.39;99599.73;371701;141;881497;-54
2021/12/11 09:06:32;;;;;;;8.43;6.29;;;;;;;9.05;74.54;99610.95;363459;147;858098;-55
2021/12/11 09:07:46;;;;;;;7.06;4.69;;;;;;;9.01;73.72;99616.14;363538;146;857782;-55
2021/12/11 09:08:52;;;;;;;7.88;5.84;;;;;;;8.90;73.87;99608.45;363767;147;857245;-55
2021/12/11 09:10:15;;;;;;;8.31;5.44;;;;;;;9.00;74.74;99599.77;363678;147;861082;-56
2021/12/11 09:11:26;;;;;;;9.24;5.49;;;;;;;8.90;74.96;99605.87;362811;147;857175;-56
2021/12/11 09:12:34;;;;;;;9.09;4.97;;;;;;;8.84;74.42;99599.03;362250;147;857372;-56
2021/12/11 09:13:46;;;;;;;8.08;5.59;;;;;;;8.73;74.23;99606.83;363623;146;860204;-55
2021/12/11 09:14:52;;;;;;;6.49;5.09;;;;;;;8.77;74.35;99610.27;362213;147;857846;-56
2021/12/11 09:15:57;;;;;;;7.14;5.31;;;;;;;8.85;74.79;99611.08;361796;147;856637;-56
2021/12/11 09:17:11;;;;;;;8.16;5.28;;;;;;;8.90;74.82;99605.87;362664;147;858111;-57
2021/12/11 09:18:25;;;;;;;6.75;5.29;;;;;;;8.93;73.80;99608.43;364334;147;856415;-55
2021/12/11 09:19:37;;;;;;;6.99;4.72;;;;;;;8.96;73.88;99599.82;366056;146;859067;-54
2021/12/11 09:20:45;;;;;;;7.13;5.04;;;;;;;9.07;74.45;99608.34;364130;146;859650;-55
2021/12/11 09:21:54;;;;;;;7.67;5.23;;;;;;;9.02;73.44;99602.36;363353;147;857752;-59
2021/12/11 09:23:04;;;;;;;7.86;4.89;;;;;;;9.09;73.82;99608.35;360321;147;857309;-59
2021/12/11 09:24:27;;;;;;;6.98;4.54;;;;;;;9.13;73.33;99610.05;356281;149;858871;-59
2021/12/11 09:25:33;;;;;;;8.10;4.70;;;;;;;9.10;72.63;99610.06;356672;150;858895;-59
2021/12/11 09:26:41;;;;;;;7.92;5.64;;;;;;;8.99;72.56;99610.97;346023;147;857704;-59
2021/12/11 09:27:53;;;;;;;9.33;5.37;;;;;;;8.92;72.25;99604.13;355381;147;857361;-58
2021/12/11 09:29:01;;;;;;;9.39;5.77;;;;;;;9.04;73.48;99605.78;354795;147;858014;-57
2021/12/11 09:30:10;;;;;;;8.47;5.72;;;;;;;9.09;72.54;99606.61;354341;149;857277;-56
2021/12/11 09:31:18;;;;;;;9.58;5.86;;;;;;;9.12;71.76;99608.33;354982;149;857281;-59
2021/12/11 09:32:27;;;;;;;9.91;5.78;;;;;;;9.17;72.26;99612.58;355227;149;857757;-57
2021/12/11 09:33:32;;;;;;;6.79;4.49;;;;;;;9.14;71.56;99610.02;342171;150;859246;-57
2021/12/11 09:34:40;;;;;;;8.74;5.44;;;;;;;9.21;71.85;99616.00;354289;149;858252;-55
2021/12/11 09:35:46;;;;;;;10.62;6.23;;;;;;;9.18;71.65;99613.45;357431;147;857832;-58
2021/12/11 09:36:54;;;;;;;12.47;5.42;;;;;;;9.10;71.03;99610.91;353421;150;857316;-57
2021/12/11 09:37:59;;;;;;;7.21;4.89;;;;;;;9.03;71.83;99601.49;354989;149;857326;-56
2021/12/11 09:39:17;;;;;;;11.38;6.63;;;;;;;9.10;72.09;99608.33;355445;149;856826;-55
2021/12/11 09:40:42;;;;;;;9.19;5.79;;;;;;;9.12;71.90;99608.33;354895;149;857316;-57
2021/12/11 09:41:44;;;;;;;9.81;5.68;;;;;;;;;;353395;149;858602;-56
2021/12/11 09:42:45;;;;;;;9.44;6.75;;;;;;;;;;357036;149;859255;-57
2021/12/11 09:43:48;;;;;;;10.21;6.54;;;;;;;;;;353280;150;856846;-56
2021/12/11 09:44:52;;;;;;;10.94;6.91;;;;;;;;;;354623;147;856915;-57
2021/12/11 09:45:53;;;;;;;9.76;6.04;;;;;;;;;;354755;149;859074;-57
2021/12/11 09:46:57;;;;;;;14.15;7.50;;;;;;;;;;356292;150;857417;-60
2021/12/11 09:48:00;;;;;;;12.25;7.52;;;;;;;;;;355863;147;859065;-59
2021/12/11 09:49:02;;;;;;;12.51;8.56;;;;;;;;;;355929;148;857319;-58
2021/12/11 09:50:08;;;;;;;13.03;8.97;;;;;;;;;;349591;152;857989;-58
2021/12/11 09:51:12;;;;;;;12.31;7.72;;;;;;;;;;356719;150;858002;-59
2021/12/11 09:52:23;;;;;;;15.27;8.08;;;;;;;-147.14;100.00;112913.77;354790;147;860231;-59
2021/12/11 09:53:19;;;;;;;13.19;7.26;;;;;;;;;;355737;150;858407;-56
2021/12/11 09:54:22;;;;;;;10.93;6.99;;;;;;;;;;356032;150;857354;-58
2021/12/11 09:55:24;;;;;;;13.09;8.89;;;;;;;;;;354703;147;857020;-57
2021/12/11 09:56:31;;;;;;;11.39;7.73;;;;;;;;;;354720;149;858867;-58
2021/12/11 09:57:34;;;;;;;11.51;8.33;;;;;;;;;;353601;150;864122;-58
2021/12/11 09:58:35;;;;;;;14.05;9.49;;;;;;;;;;354984;147;857782;-57
2021/12/11 09:59:37;;;;;;;14.04;8.86;;;;;;;;;;355367;148;859402;-58
2021/12/11 10:00:41;;;;;;;14.68;8.50;;;;;;;;;;355152;150;865059;-56
2021/12/11 10:01:43;;;;;;;12.09;8.26;;;;;;;;;;353535;150;857374;-58
2021/12/11 10:02:45;;;;;;;15.52;9.69;;;;;;;;;;355600;148;858756;-56
2021/12/11 10:03:48;;;;;;;14.85;10.05;;;;;;;;;;353509;150;857768;-58
2021/12/11 10:04:58;;;;;;;16.42;9.77;;;;;;;;;;356056;150;857570;-58
2021/12/11 10:05:57;;;;;;;11.18;7.42;;;;;;;;;;354498;147;865179;-59
2021/12/11 10:08:30;;;;;;;15.86;9.95;;;;;;;;;;356816;150;857384;-58
2021/12/11 10:09:33;;;;;;;16.54;9.59;;;;;;;;;;354749;147;856736;-58
2021/12/11 10:10:34;;;;;;;15.38;10.09;;;;;;;;;;353688;149;865237;-59
2021/12/11 10:11:36;;;;;;;14.21;9.19;;;;;;;;;;356709;149;857827;-59
2021/12/11 10:12:40;;;;;;;11.69;8.29;;;;;;;;;;356616;149;865135;-60
2021/12/11 10:13:43;;;;;;;15.51;8.60;;;;;;;;;;355865;148;857251;-59
2021/12/11 10:14:47;;;;;;;22.62;10.95;;;;;;;;;;355423;150;857491;-58
2021/12/11 10:15:49;;;;;;;18.55;10.69;;;;;;;;;;349709;151;858435;-59
2021/12/11 10:16:51;;;;;;;14.52;8.03;;;;;;;;;;350009;150;857264;-58
2021/12/11 10:17:54;;;;;;;16.54;10.72;;;;;;;;;;355598;147;864583;-57
2021/12/11 10:18:56;;;;;;;16.86;10.21;;;;;;;;;;357365;150;858140;-58
2021/12/11 10:19:58;;;;;;;17.51;9.64;;;;;;;;;;356093;147;857311;-58
2021/12/11 10:21:17;;;;;;;16.27;10.42;;;;;;;;;;353770;150;863277;-59
2021/12/11 10:22:23;;;;;;;17.81;8.95;;;;;;;;;;354883;150;856370;-59
2021/12/11 10:23:26;;;;;;;18.42;10.53;;;;;;;;;;356167;148;858180;-58
2021/12/11 10:24:28;;;;;;;17.83;11.46;;;;;;;;;;354891;147;857174;-59
2021/12/11 10:25:32;;;;;;;20.11;11.70;;;;;;;;;;355660;150;857359;-59
2021/12/11 10:38:21;;;;;;;17.06;9.34;;;;;;;7.16;78.43;99611.50;373085;142;880751;-59
2021/12/11 10:39:23;;;;;;;12.47;7.58;;;;;;;7.05;78.79;99610.64;364601;145;857633;-59
2021/12/11 10:40:29;;;;;;;12.77;6.71;;;;;;;7.05;78.77;99618.36;363825;147;856887;-59
2021/12/11 10:41:31;;;;;;;10.86;7.18;;;;;;;6.98;78.64;99608.05;365785;145;857340;-59
2021/12/11 10:42:33;;;;;;;10.25;6.31;;;;;;;7.02;78.50;99616.62;364178;145;857202;-58
2021/12/11 10:43:47;;;;;;;14.67;7.39;;;;;;;7.08;78.51;99616.62;361197;145;857247;-60
2021/12/11 10:44:51;;;;;;;13.07;7.34;;;;;;;7.16;78.05;99616.65;348997;150;858975;-57
2021/12/11 10:45:53;;;;;;;12.07;6.66;;;;;;;7.29;77.48;99617.50;362360;145;858171;-58
2021/12/11 10:47:04;;;;;;;11.59;7.37;;;;;;;7.41;77.27;99614.92;353424;148;859763;-60
2021/12/11 10:48:08;;;;;;;10.81;6.58;;;;;;;7.54;77.03;99600.33;349577;149;857296;-61
2021/12/11 10:49:11;;;;;;;10.54;5.59;;;;;;;7.69;76.22;99607.19;354189;148;857376;-61
2021/12/11 10:50:29;;;;;;;14.12;6.53;;;;;;;7.77;75.37;99606.31;355526;148;865703;-61
2021/12/11 10:51:36;;;;;;;10.32;6.62;;;;;;;7.82;74.85;99599.43;360850;145;860091;-61
2021/12/11 10:52:38;;;;;;;10.67;5.83;;;;;;;;;;352589;148;856279;-61
2021/12/11 10:53:42;;;;;;;10.55;7.32;;;;;;;;;;347945;152;856468;-61
2021/12/11 10:54:43;;;;;;;10.36;5.99;;;;;;;;;;358421;147;856478;-61
2021/12/11 10:55:45;;;;;;;7.97;5.55;;;;;;;;;;359453;145;857198;-61
2021/12/11 10:56:46;;;;;;;10.11;6.33;;;;;;;;;;361029;148;857309;-62
2021/12/11 10:57:49;;;;;;;9.94;6.94;;;;;;;;;;358891;147;865018;-62
2021/12/11 10:58:53;;;;;;;10.69;7.27;;;;;;;;;;360724;145;856178;-61
2021/12/11 11:12:23;;;;;;;7.69;4.67;;;;;;;8.05;75.31;99612.27;366133;144;876047;-58
2021/12/11 11:13:25;;;;;;;8.52;5.06;;;;;;;7.99;74.97;99602.81;357464;147;858881;-58
2021/12/11 11:14:27;;;;;;;8.76;5.33;;;;;;;8.05;75.09;99604.53;359255;146;858716;-58
2021/12/11 11:15:29;;;;;;;8.94;5.43;;;;;;;;;;360796;147;857343;-59
2021/12/11 11:16:31;;;;;;;7.79;5.47;;;;;;;;;;361629;146;857321;-59
2021/12/11 11:17:34;;;;;;;9.52;6.14;;;;;;;;;;365732;144;864767;-58
2021/12/11 11:18:36;;;;;;;8.58;5.64;;;;;;;;;;358974;147;866906;-58
2021/12/11 11:19:40;;;;;;;11.26;6.31;;;;;;;;;;359400;147;857875;-59
2021/12/11 11:20:44;;;;;;;9.87;6.80;;;;;;;;;;358290;147;865873;-60
2021/12/11 11:21:46;;;;;;;10.51;7.02;;;;;;;;;;361840;147;860197;-59
2021/12/11 11:22:47;;;;;;;11.45;7.35;;;;;;;;;;359054;147;857713;-58
2021/12/11 11:23:49;;;;;;;8.56;5.45;;;;;;;;;;356851;149;859801;-59
2021/12/11 11:24:52;;;;;;;10.71;7.06;;;;;;;;;;359607;147;857400;-60
2021/12/11 11:25:55;;;;;;;10.03;6.45;;;;;;;;;;359872;147;857779;-60
2021/12/11 11:26:56;;;;;;;12.09;7.97;;;;;;;;;;359376;147;859872;-60
2021/12/11 11:27:59;;;;;;;8.71;5.48;;;;;;;;;;358300;149;857263;-59
2021/12/11 11:29:01;;;;;;;9.43;7.06;;;;;;;;;;361231;147;857405;-60
2021/12/11 11:30:04;;;;;;;11.73;6.89;;;;;;;;;;358703;147;859030;-58
2021/12/11 11:31:07;;;;;;;8.53;6.23;;;;;;;;;;352353;149;857295;-58
2021/12/11 11:32:10;;;;;;;10.29;7.35;;;;;;;;;;360895;147;859564;-58
2021/12/11 11:33:14;;;;;;;11.94;7.46;;;;;;;;;;357928;147;857406;-59
2021/12/11 11:34:16;;;;;;;11.59;6.74;;;;;;;;;;358775;147;857528;-59
2021/12/11 11:35:19;;;;;;;11.75;6.12;;;;;;;;;;357985;148;858685;-59
2021/12/11 11:36:21;;;;;;;10.54;6.64;;;;;;;;;;359201;147;857213;-59
2021/12/11 11:37:23;;;;;;;9.67;6.15;;;;;;;;;;358295;147;864962;-58
2021/12/11 11:38:26;;;;;;;8.84;5.52;;;;;;;;;;358161;147;865038;-60
2021/12/11 11:39:28;;;;;;;6.19;4.03;;;;;;;;;;359392;147;857394;-58
2021/12/11 11:40:31;;;;;;;9.56;5.77;;;;;;;;;;359420;147;857311;-59
2021/12/11 11:41:35;;;;;;;7.48;4.81;;;;;;;;;;359922;147;857678;-64
2021/12/11 11:42:37;;;;;;;7.44;5.05;;;;;;;;;;358351;149;857896;-60
2021/12/11 11:43:38;;;;;;;8.96;5.76;;;;;;;;;;357807;147;860062;-56
2021/12/11 11:44:45;;;;;;;9.52;6.31;;;;;;;;;;358009;147;857725;-59
2021/12/11 11:45:52;;;;;;;10.93;6.02;;;;;;;;;;358082;148;859553;-61
2021/12/11 11:46:50;;;;;;;8.35;5.95;;;;;;;;;;357901;147;857751;-59
2021/12/11 11:47:54;;;;;;;16.64;7.77;;;;;;;;;;357963;149;867076;-58
2021/12/11 11:48:56;;;;;;;7.74;5.54;;;;;;;;;;358687;149;866010;-58
2021/12/11 11:49:59;;;;;;;9.98;6.21;;;;;;;;;;358272;147;866715;-58
2021/12/11 11:51:02;;;;;;;8.35;5.39;;;;;;;;;;359617;148;857368;-59
2021/12/11 11:52:07;;;;;;;5.87;4.79;;;;;;;;;;359268;147;866290;-59
2021/12/11 11:53:08;;;;;;;9.42;6.29;;;;;;;;;;356517;147;866358;-58
2021/12/11 11:54:10;;;;;;;6.25;4.59;;;;;;;;;;354090;149;858375;-58
2021/12/11 11:55:13;;;;;;;7.37;5.31;;;;;;;;;;358554;147;863825;-58
2021/12/11 11:56:16;;;;;;;9.30;6.24;;;;;;;;;;356216;146;856427;-58
2021/12/11 11:57:26;;;;;;;8.73;5.65;;;;;;;;;;357659;148;856691;-59
2021/12/11 11:58:27;;;;;;;8.76;5.69;;;;;;;;;;358048;147;856572;-58
2021/12/11 11:59:29;;;;;;;7.59;6.09;;;;;;;;;;356195;147;857080;-58
2021/12/11 12:00:41;;;;;;;9.17;5.67;;;;;;;;;;359064;147;856113;-58
2021/12/11 12:01:46;;;;;;;8.32;5.54;;;;;;;;;;357487;147;859799;-59
2021/12/11 12:02:48;;;;;;;9.47;5.42;;;;;;;;;;356011;151;856149;-59
2021/12/11 12:03:50;;;;;;;8.55;6.49;;;;;;;;;;352753;150;857397;-58
2021/12/11 12:04:52;;;;;;;8.01;5.51;;;;;;;;;;355705;149;858792;-58
2021/12/11 12:05:55;;;;;;;8.20;5.54;;;;;;;;;;356444;147;859607;-58
2021/12/11 12:07:00;;;;;;;10.14;5.44;;;;;;;;;;357233;147;859178;-57
2021/12/11 12:08:01;;;;;;;8.33;5.50;;;;;;;;;;356896;147;858978;-58
2021/12/11 12:09:05;;;;;;;8.02;5.31;;;;;;;;;;358300;148;866658;-58
2021/12/11 12:10:08;;;;;;;7.81;4.94;;;;;;;;;;357795;147;859179;-58
2021/12/11 12:11:10;;;;;;;7.10;5.63;;;;;;;;;;355558;150;857930;-57
2021/12/11 12:12:12;;;;;;;7.91;4.87;;;;;;;;;;359217;148;859971;-58
2021/12/11 12:13:16;;;;;;;9.56;5.96;;;;;;;;;;359404;148;857333;-57
2021/12/11 12:14:19;;;;;;;17.06;12.36;;;;;;;;;;356782;149;857237;-59
2021/12/11 12:15:22;;;;;;;12.77;8.94;;;;;;;;;;358721;147;866337;-59
2021/12/11 12:16:24;;;;;;;15.17;8.56;;;;;;;;;;359309;149;858655;-59
2021/12/11 12:17:26;;;;;;;14.76;9.70;;;;;;;;;;361437;148;856868;-58
2021/12/11 12:18:28;;;;;;;9.12;5.78;;;;;;;;;;359483;147;864179;-59
2021/12/11 12:19:30;;;;;;;8.62;5.68;;;;;;;;;;358082;147;859317;-57
2021/12/11 12:20:31;;;;;;;9.79;6.57;;;;;;;;;;356644;147;865050;-59
2021/12/11 12:21:35;;;;;;;7.39;5.54;;;;;;;;;;358807;147;857262;-57
2021/12/11 12:22:37;;;;;;;6.11;4.26;;;;;;;;;;357481;147;857314;-58
2021/12/11 12:23:39;;;;;;;12.30;9.20;;;;;;;;;;350256;150;857874;-58
2021/12/11 12:24:41;;;;;;;7.49;5.61;;;;;;;;;;351495;152;865797;-57
2021/12/11 12:25:42;;;;;;;7.09;5.13;;;;;;;;;;358159;147;865586;-58
2021/12/11 12:26:45;;;;;;;10.76;8.34;;;;;;;;;;359444;147;859213;-57
2021/12/11 12:27:47;;;;;;;12.13;9.89;;;;;;;;;;358045;147;865040;-59
2021/12/11 12:28:49;;;;;;;10.76;6.84;;;;;;;;;;359183;147;857955;-57
2021/12/11 12:29:51;;;;;;;10.56;5.79;;;;;;;;;;357698;148;866718;-58
2021/12/11 12:31:00;;;;;;;8.20;4.89;;;;;;;;;;359259;147;856579;-60
2021/12/11 12:32:04;;;;;;;9.24;5.32;;;;;;;;;;359346;147;856566;-58
2021/12/11 12:33:06;;;;;;;7.46;4.80;;;;;;;;;;358036;148;858779;-58
2021/12/11 12:34:08;;;;;;;11.07;5.03;;;;;;;;;;361146;148;856046;-59
2021/12/11 12:35:11;;;;;;;7.46;4.88;;;;;;;;;;359552;149;861193;-58
2021/12/11 12:36:13;;;;;;;6.21;4.63;;;;;;;;;;354768;147;857404;-57
2021/12/11 12:37:14;;;;;;;8.10;5.06;;;;;;;;;;355309;148;861275;-57
2021/12/11 12:38:17;;;;;;;6.69;4.55;;;;;;;;;;358950;149;863913;-60
2021/12/11 12:39:20;;;;;;;6.29;4.71;;;;;;;;;;358958;147;857410;-59
2021/12/11 12:40:28;;;;;;;7.84;5.42;;;;;;;;;;358035;148;857201;-56
2021/12/11 12:41:31;;;;;;;10.37;7.54;;;;;;;;;;352795;149;857285;-57
2021/12/11 12:42:37;;;;;;;8.48;5.29;;;;;;;;;;358733;147;858710;-57
2021/12/11 12:43:56;;;;;;;8.71;4.77;;;;;;;;;;355792;150;857437;-58
2021/12/11 12:44:48;;;;;;;12.14;5.72;;;;;;;;;;350601;150;859244;-57
2021/12/11 12:45:50;;;;;;;9.03;5.49;;;;;;;;;;358189;147;856819;-58
2021/12/11 12:46:57;;;;;;;10.81;6.36;;;;;;;;;;356788;147;866013;-58
2021/12/11 12:48:01;;;;;;;8.86;6.04;;;;;;;;;;358759;146;859003;-57
2021/12/11 12:49:04;;;;;;;8.45;5.44;;;;;;;;;;358306;147;857254;-59
2021/12/11 12:50:08;;;;;;;8.64;5.90;;;;;;;;;;358364;147;858848;-56
2021/12/11 12:51:11;;;;;;;7.55;5.26;;;;;;;;;;348230;151;857484;-58
2021/12/11 12:52:15;;;;;;;8.59;5.71;;;;;;;;;;349243;149;865531;-58
2021/12/11 12:53:16;;;;;;;9.58;6.20;;;;;;;;;;359123;147;857910;-57
2021/12/11 12:54:19;;;;;;;10.24;5.54;;;;;;;;;;358112;147;857427;-59
2021/12/11 12:55:28;;;;;;;7.71;5.15;;;;;;;;;;359132;147;865168;-60
2021/12/11 12:56:31;;;;;;;7.38;4.97;;;;;;;;;;358322;147;858336;-57
2021/12/11 12:57:34;;;;;;;10.14;6.71;;;;;;;;;;358374;147;857870;-57
2021/12/11 12:58:37;;;;;;;7.95;5.74;;;;;;;;;;357518;149;858026;-55
2021/12/11 12:59:41;;;;;;;9.10;6.71;;;;;;;;;;358173;146;858818;-54
2021/12/11 13:00:45;;;;;;;7.35;4.79;;;;;;;;;;357606;147;857399;-54
2021/12/11 13:01:51;;;;;;;6.89;4.83;;;;;;;;;;355076;148;859429;-57
2021/12/11 13:02:54;;;;;;;6.69;4.96;;;;;;;;;;355518;149;864860;-58
2021/12/11 13:03:56;;;;;;;7.06;5.01;;;;;;;;;;357810;147;857361;-61
2021/12/11 13:05:00;;;;;;;7.48;5.27;;;;;;;;;;357991;147;858332;-61
2021/12/11 13:06:03;;;;;;;7.19;4.92;;;;;;;;;;359196;147;857251;-59
2021/12/11 13:07:06;;;;;;;5.71;4.56;;;;;;;;;;360580;147;857398;-60
2021/12/11 13:08:10;;;;;;;8.06;5.26;;;;;;;;;;358196;148;859496;-61
2021/12/11 13:09:13;;;;;;;6.49;4.95;;;;;;;;;;359668;147;860063;-57
2021/12/11 13:10:19;;;;;;;6.51;4.94;;;;;;;;;;355758;147;860650;-57
2021/12/11 13:11:26;;;;;;;7.39;4.48;;;;;;;;;;358162;147;857533;-57
2021/12/11 13:12:29;;;;;;;5.32;4.55;;;;;;;;;;356812;146;856322;-58
2021/12/11 13:13:31;;;;;;;6.28;4.53;;;;;;;;;;355958;149;859096;-56
2021/12/11 13:14:32;;;;;;;5.57;4.41;;;;;;;;;;356203;148;859987;-55
2021/12/11 13:15:36;;;;;;;6.63;5.15;;;;;;;;;;354938;148;865042;-57
2021/12/11 13:16:40;;;;;;;7.19;4.03;;;;;;;;;;354051;149;864892;-57
2021/12/11 13:17:43;;;;;;;9.16;5.63;;;;;;;;;;356420;149;859419;-56
2021/12/11 13:18:47;;;;;;;7.61;5.05;;;;;;;;;;356715;148;859368;-56
2021/12/11 13:19:50;;;;;;;8.79;5.19;;;;;;;;;;350166;151;857487;-55
2021/12/11 13:20:53;;;;;;;8.30;5.31;;;;;;;;;;347797;152;865758;-55
2021/12/11 13:21:56;;;;;;;6.51;4.59;;;;;;;;;;346622;153;858921;-55
2021/12/11 13:22:59;;;;;;;5.49;4.01;;;;;;;;;;343803;153;859106;-55
2021/12/11 13:24:01;;;;;;;7.95;5.21;;;;;;;;;;349826;152;857886;-54
2021/12/11 13:25:08;;;;;;;5.61;4.11;;;;;;;;;;346624;153;864848;-55
2021/12/11 13:26:10;;;;;;;8.39;5.73;;;;;;;;;;346924;151;859502;-55
2021/12/11 13:27:12;;;;;;;7.32;4.95;;;;;;;;;;347916;153;857768;-55
2021/12/11 13:28:14;;;;;;;4.25;3.43;;;;;;;;;;349503;152;861589;-55
2021/12/11 13:29:17;;;;;;;7.63;4.94;;;;;;;;;;348317;151;857694;-55
2021/12/11 13:30:21;;;;;;;8.54;4.77;;;;;;;;;;344726;153;859218;-53
2021/12/11 13:31:27;;;;;;;7.81;5.83;;;;;;;;;;347051;153;859019;-55
2021/12/11 13:32:29;;;;;;;7.61;5.36;;;;;;;;;;349043;151;857096;-54
2021/12/11 13:33:32;;;;;;;7.37;5.59;;;;;;;;;;349800;151;857964;-56
2021/12/11 13:34:35;;;;;;;6.27;4.45;;;;;;;;;;348501;153;857196;-55
2021/12/11 13:35:37;;;;;;;9.68;5.53;;;;;;;;;;347178;151;861901;-56
2021/12/11 13:36:39;;;;;;;8.43;5.81;;;;;;;;;;350402;151;857263;-57
2021/12/11 13:37:41;;;;;;;8.34;5.71;;;;;;;;;;349397;153;857205;-55
2021/12/11 13:38:42;;;;;;;6.11;4.97;;;;;;;;;;349579;153;857257;-56
2021/12/11 13:39:45;;;;;;;8.26;5.48;;;;;;;;;;348554;151;859647;-55
2021/12/11 13:40:47;;;;;;;6.07;4.37;;;;;;;;;;350123;153;864927;-57
2021/12/11 13:41:59;;;;;;;8.64;5.31;;;;;;;;;;350957;153;856507;-56
2021/12/11 13:42:54;;;;;;;7.44;4.96;;;;;;;;;;347186;152;857142;-58
2021/12/11 13:43:56;;;;;;;8.44;5.91;;;;;;;;;;349713;151;857324;-57
2021/12/11 13:44:59;;;;;;;7.19;4.79;;;;;;;;;;351633;153;865367;-58
2021/12/11 13:46:00;;;;;;;5.38;4.29;;;;;;;;;;347979;153;857764;-58
2021/12/11 13:47:03;;;;;;;7.96;5.97;;;;;;;;;;350950;151;857825;-57
2021/12/11 13:48:05;;;;;;;8.48;4.99;;;;;;;;;;349198;153;857563;-57
2021/12/11 13:49:07;;;;;;;10.53;6.17;;;;;;;;;;347629;151;858178;-57
2021/12/11 13:50:11;;;;;;;7.14;4.19;;;;;;;;;;350340;151;860318;-56
2021/12/11 13:51:14;;;;;;;7.12;5.37;;;;;;;;;;348790;153;865297;-56
2021/12/11 13:52:16;;;;;;;6.71;4.76;;;;;;;;;;349353;153;857826;-57
2021/12/11 13:53:20;;;;;;;7.41;5.63;;;;;;;;;;347589;153;858181;-59
2021/12/11 13:54:21;;;;;;;8.01;6.13;;;;;;;;;;350217;151;864729;-60
2021/12/11 13:55:22;;;;;;;9.08;6.01;;;;;;;;;;348239;153;858080;-61
2021/12/11 13:56:26;;;;;;;9.15;5.97;;;;;;;;;;348399;153;864182;-57
2021/12/11 13:57:28;;;;;;;8.53;5.54;;;;;;;;;;349855;151;857273;-56
2021/12/11 13:58:29;;;;;;;6.88;4.99;;;;;;;;;;348251;153;856146;-56
2021/12/11 13:59:31;;;;;;;7.34;4.99;;;;;;;;;;348844;153;865527;-57
2021/12/11 14:00:34;;;;;;;9.31;5.20;;;;;;;;;;347424;152;859548;-59
2021/12/11 14:01:37;;;;;;;10.11;6.72;;;;;;;;;;347665;153;857497;-56
2021/12/11 14:02:38;;;;;;;8.26;5.73;;;;;;;;;;346548;153;861402;-58
2021/12/11 14:03:40;;;;;;;9.64;5.91;;;;;;;;;;348822;151;857289;-56
2021/12/11 14:04:42;;;;;;;8.26;5.41;;;;;;;;;;346485;151;859064;-59
2021/12/11 14:05:44;;;;;;;9.09;5.79;;;;;;;;;;347345;153;858938;-56
2021/12/11 14:06:52;;;;;;;10.83;6.07;;;;;;;;;;350153;153;865535;-56
2021/12/11 14:07:53;;;;;;;6.37;4.94;;;;;;;;;;349808;151;857635;-57
2021/12/11 14:09:00;;;;;;;5.85;4.74;;;;;;;;;;348498;153;858090;-58
2021/12/11 14:09:59;;;;;;;8.38;5.61;;;;;;;;;;346594;153;866497;-58
2021/12/11 14:11:01;;;;;;;7.67;4.73;;;;;;;;;;347329;151;858886;-57
2021/12/11 14:12:03;;;;;;;9.32;5.51;;;;;;;;;;348558;151;857397;-56
2021/12/11 14:13:06;;;;;;;6.91;5.91;;;;;;;;;;349995;152;856585;-57
2021/12/11 14:14:09;;;;;;;4.54;2.86;;;;;;;;;;354205;149;856784;-56
2021/12/11 14:15:11;;;;;;;9.34;5.29;;;;;;;;;;356549;149;856128;-59
2021/12/11 14:16:14;;;;;;;9.45;6.27;;;;;;;;;;356099;150;857397;-59
2021/12/11 14:17:17;;;;;;;9.43;6.08;;;;;;;;;;355480;149;856646;-59
2021/12/11 14:18:20;;;;;;;7.82;5.85;;;;;;;;;;355011;148;856277;-59
2021/12/11 14:19:22;;;;;;;13.67;7.70;;;;;;;;;;355688;150;856056;-58
2021/12/11 14:20:28;;;;;;;9.90;5.95;;;;;;;;;;355678;150;858863;-58
2021/12/11 14:21:31;;;;;;;11.24;6.97;;;;;;;;;;355280;149;864323;-58
2021/12/11 14:22:36;;;;;;;10.21;6.18;;;;;;;;;;356601;149;856518;-57
2021/12/11 14:23:39;;;;;;;10.70;6.79;;;;;;;;;;356528;150;856219;-59
2021/12/11 14:24:42;;;;;;;8.91;5.85;;;;;;;;;;353343;149;856206;-59
2021/12/11 14:25:45;;;;;;;10.02;5.63;;;;;;;;;;355701;149;856462;-59
2021/12/11 14:26:48;;;;;;;8.06;5.99;;;;;;;;;;354190;150;856608;-60
2021/12/11 14:27:50;;;;;;;8.15;5.56;;;;;;;;;;355937;148;863631;-59
2021/12/11 14:28:54;;;;;;;7.34;4.64;;;;;;;;;;355541;149;856099;-59
2021/12/11 14:29:56;;;;;;;7.32;5.08;;;;;;;;;;355281;148;856563;-60
2021/12/11 14:31:00;;;;;;;10.88;6.55;;;;;;;;;;353812;148;856857;-58
2021/12/11 14:32:03;;;;;;;10.58;7.20;;;;;;;;;;355623;150;863931;-59
2021/12/11 14:33:06;;;;;;;9.49;6.04;;;;;;;;;;355678;150;856199;-58
2021/12/11 14:34:08;;;;;;;9.04;6.74;;;;;;;;;;353818;149;856499;-60
2021/12/11 14:35:11;;;;;;;9.59;5.81;;;;;;;;;;354351;150;856211;-59
2021/12/11 14:36:13;;;;;;;9.67;6.37;;;;;;;;;;356150;148;857028;-59
2021/12/11 14:37:14;;;;;;;6.43;4.86;;;;;;;;;;355976;148;856286;-59
2021/12/11 14:38:16;;;;;;;9.48;4.86;;;;;;;;;;354025;148;856379;-58
2021/12/11 14:39:21;;;;;;;7.89;5.47;;;;;;;;;;355854;149;857011;-59
2021/12/11 14:40:24;;;;;;;8.97;5.92;;;;;;;;;;356712;147;864635;-59
2021/12/11 14:41:31;;;;;;;9.83;5.27;;;;;;;;;;357426;148;856083;-58
2021/12/11 14:42:29;;;;;;;7.58;5.79;;;;;;;;;;356134;148;863824;-58
2021/12/11 14:43:30;;;;;;;9.89;5.94;;;;;;;;;;356429;148;856069;-66